Time;durP1;ratioP1;P1;durP2;ratioP2;P2;SDS_P1;SDS_P2;PMS_P1;PMS_P2;Temp;Humidity;BMP_temperature;BMP_pressure;BME280_temperature;BME280_humidity;BME280_pressure;Samples;Min_cycle;Max_cycle;Signal;HPM_P1;HPM_P2
2023/04/12 00:00:16;;;;;;;;;;;;;;;6.22;69.07;99745.00;5063583;28;2054;-76
2023/04/12 00:02:43;;;;;;;;;;;;;;;6.23;69.17;99749.28;5044659;28;2012;-78
2023/04/12 00:05:10;;;;;;;;;;;;;;;6.23;69.13;99749.28;5065938;28;1767;-79
2023/04/12 00:07:37;;;;;;;;;;;;;;;6.23;69.35;99754.66;5059063;28;4832;-79
2023/04/12 00:10:03;;;;;;;;;;;;;;;6.22;69.19;99754.88;5065111;28;3184;-79
2023/04/12 00:12:30;;;;;;;;;;;;;;;6.23;69.36;99759.19;5064452;28;3210;-78
2023/04/12 00:14:56;;;;;;;;;;;;;;;6.22;69.28;99757.53;5066213;28;1686;-77
2023/04/12 00:17:23;;;;;;;;;;;;;;;6.22;69.16;99750.34;5063563;28;2068;-79
2023/04/12 00:19:49;;;;;;;;;;;;;;;6.22;69.23;99758.38;5065610;28;1939;-77
2023/04/12 00:22:16;;;;;;;;;;;;;;;6.22;69.17;99761.03;5061547;28;2006;-78
2023/04/12 00:24:43;;;;;;;;;;;;;;;6.23;69.11;99757.31;5064982;28;3595;-79
2023/04/12 00:27:09;;;;;;;;;;;;;;;6.21;68.89;99761.25;5068662;28;1902;-78
2023/04/12 00:29:36;;;;;;;;;;;;;;;6.21;69.10;99755.91;5064527;28;2086;-79
2023/04/12 00:32:04;;;;;;;;;;;;;;;6.20;69.45;99764.94;5068320;28;1951;-78
2023/04/12 00:34:30;;;;;;;;;;;;;;;6.20;69.07;99764.94;5064490;28;1715;-78
2023/04/12 00:36:57;;;;;;;;;;;;;;;6.21;69.10;99769.28;5058748;28;1672;-79
2023/04/12 00:39:23;;;;;;;;;;;;;;;6.21;69.21;99771.97;5068686;28;1753;-81
2023/04/12 00:41:50;;;;;;;;;;;;;;;6.20;69.08;99767.63;5068007;28;1705;-79
2023/04/12 00:44:17;;;;;;;;;;;;;;;6.20;68.96;99767.63;5062074;28;2092;-78
2023/04/12 00:46:44;;;;;;;;;;;;;;;6.21;69.15;99769.28;5045432;28;2181;-78
2023/04/12 00:49:11;;;;;;;;;;;;;;;6.19;69.15;99766.00;5066074;28;1733;-79
2023/04/12 00:51:38;;;;;;;;;;;;;;;6.18;69.17;99757.16;5072450;28;1961;-79
2023/04/12 00:54:04;;;;;;;;;;;;;;;6.19;69.04;99764.13;5051329;28;1896;-79
2023/04/12 00:56:31;;;;;;;;;;;;;;;6.18;69.08;99753.63;5067205;28;1741;-79
2023/04/12 00:58:58;;;;;;;;;;;;;;;6.19;68.93;99760.63;5039930;28;1718;-79
2023/04/12 01:01:24;;;;;;;;;;;;;;;6.19;69.09;99758.78;5043494;28;2596;-79
2023/04/12 01:03:51;;;;;;;;;;;;;;;6.19;68.92;99760.63;5046100;28;2208;-79
2023/04/12 01:06:17;;;;;;;;;;;;;;;6.18;69.04;99757.16;5069696;28;1932;-77
2023/04/12 01:08:44;;;;;;;;;;;;;;;6.17;69.15;99755.50;5070492;28;1738;-80
2023/04/12 01:11:10;;;;;;;;;;;;;;;6.18;69.03;99764.31;5067078;28;1992;-79
2023/04/12 01:13:39;;;;;;;;;;;;;;;6.17;68.87;99752.00;5063925;28;4892;-77
2023/04/12 01:16:06;;;;;;;;;;;;;;;6.17;69.12;99762.69;5062730;28;3881;-78
2023/04/12 01:18:33;;;;;;;;;;;;;;;6.17;68.86;99762.69;5057158;28;3225;-76
2023/04/12 01:21:00;;;;;;;;;;;;;;;6.17;68.98;99768.84;5064683;28;1680;-76
2023/04/12 01:23:27;;;;;;;;;;;;;;;6.16;68.87;99761.06;5068856;28;1685;-78
2023/04/12 01:25:53;;;;;;;;;;;;;;;6.14;69.06;99756.72;5050084;28;2169;-77
2023/04/12 01:28:20;;;;;;;;;;;;;;;6.15;68.83;99754.91;5074439;28;2049;-77
2023/04/12 01:30:47;;;;;;;;;;;;;;;6.16;69.27;99761.06;5068744;28;3952;-77
2023/04/12 01:33:14;;;;;;;;;;;;;;;6.16;68.87;99763.75;5067972;28;1728;-78
2023/04/12 01:35:40;;;;;;;;;;;;;;;6.25;68.28;99765.16;5063954;28;1995;-77
2023/04/12 01:38:07;;;;;;;;;;;;;;;6.18;68.78;99769.69;5067458;28;4235;-77
2023/04/12 01:40:33;;;;;;;;;;;;;;;6.16;68.86;99767.22;5065032;28;1775;-77
2023/04/12 01:43:00;;;;;;;;;;;;;;;6.16;68.87;99771.75;5063447;28;2426;-78
2023/04/12 01:45:26;;;;;;;;;;;;;;;6.14;68.89;99770.09;5063756;28;2033;-77
2023/04/12 01:47:53;;;;;;;;;;;;;;;6.13;68.89;99763.13;5045747;28;1899;-76
2023/04/12 01:50:19;;;;;;;;;;;;;;;6.14;68.96;99771.94;5048519;28;2010;-77
2023/04/12 01:52:46;;;;;;;;;;;;;;;6.13;68.85;99768.47;5076976;28;2033;-78
2023/04/12 01:55:12;;;;;;;;;;;;;;;6.12;69.18;99766.84;5049357;28;2908;-78
2023/04/12 01:57:39;;;;;;;;;;;;;;;6.14;68.87;99764.75;5067349;28;1631;-76
2023/04/12 02:00:06;;;;;;;;;;;;;;;6.13;68.94;99764.97;5036621;28;2069;-78
2023/04/12 02:02:34;;;;;;;;;;;;;;;6.12;68.82;99761.47;5042348;28;2341;-78
2023/04/12 02:05:01;;;;;;;;;;;;;;;6.12;68.93;99760.66;5064500;28;1940;-78
2023/04/12 02:07:27;;;;;;;;;;;;;;;6.12;68.86;99758.00;5062248;28;1698;-77
2023/04/12 02:09:54;;;;;;;;;;;;;;;6.13;69.01;99760.44;5043969;28;2137;-77
2023/04/12 02:12:21;;;;;;;;;;;;;;;6.13;68.73;99759.63;5047076;28;1997;-79
2023/04/12 02:14:50;;;;;;;;;;;;;;;6.13;68.80;99757.78;5063942;28;1823;-78
2023/04/12 02:17:17;;;;;;;;;;;;;;;6.14;68.89;99758.59;5042308;28;4758;-77
2023/04/12 02:19:43;;;;;;;;;;;;;;;6.13;68.66;99767.66;5068354;28;3850;-79
2023/04/12 02:22:10;;;;;;;;;;;;;;;6.13;68.72;99773.00;5065163;28;1942;-79
2023/04/12 02:24:37;;;;;;;;;;;;;;;6.12;68.73;99769.50;5067158;28;3225;-78
2023/04/12 02:27:03;;;;;;;;;;;;;;;6.12;68.66;99769.50;5070871;28;2043;-80
2023/04/12 02:29:30;;;;;;;;;;;;;;;6.12;68.77;99777.53;5067563;28;1564;-79
2023/04/12 02:31:56;;;;;;;;;;;;;;;6.12;68.91;99774.84;5055152;28;1999;-78
2023/04/12 02:34:23;;;;;;;;;;;;;;;6.13;69.03;99773.00;5048301;28;1678;-78
2023/04/12 02:36:49;;;;;;;;;;;;;;;6.14;68.57;99769.28;5065450;28;3575;-79
2023/04/12 02:39:17;;;;;;;;;;;;;;;6.12;68.90;99772.19;5064336;28;2049;-78
2023/04/12 02:41:43;;;;;;;;;;;;;;;6.19;68.48;99768.66;5067336;28;2090;-78
2023/04/12 02:44:10;;;;;;;;;;;;;;;6.13;68.67;99768.47;5046133;28;1685;-77
2023/04/12 02:46:37;;;;;;;;;;;;;;;6.12;68.83;99763.34;5058677;28;1861;-77
2023/04/12 02:49:03;;;;;;;;;;;;;;;6.11;68.63;99761.69;5058489;28;1745;-77
2023/04/12 02:51:30;;;;;;;;;;;;;;;6.10;68.68;99760.88;5069037;28;1940;-77
2023/04/12 02:53:57;;;;;;;;;;;;;;;6.12;68.73;99756.13;5049045;28;2009;-78
2023/04/12 02:56:23;;;;;;;;;;;;;;;6.13;68.47;99762.31;5068825;28;1829;-76
2023/04/12 02:58:50;;;;;;;;;;;;;;;6.16;68.58;99761.88;5055349;28;1879;-77
2023/04/12 03:01:17;;;;;;;;;;;;;;;6.22;68.32;99761.03;5061282;28;2176;-77
2023/04/12 03:03:44;;;;;;;;;;;;;;;6.16;68.66;99761.88;5066126;28;1900;-77
2023/04/12 03:06:10;;;;;;;;;;;;;;;6.11;68.66;99757.16;5056474;28;1685;-77
2023/04/12 03:08:38;;;;;;;;;;;;;;;6.09;68.62;99769.94;5063225;28;1713;-77
2023/04/12 03:11:05;;;;;;;;;;;;;;;6.11;68.83;99767.03;5048182;28;1910;-78
2023/04/12 03:13:32;;;;;;;;;;;;;;;6.11;68.81;99764.34;5064166;28;1690;-77
2023/04/12 03:15:58;;;;;;;;;;;;;;;6.07;68.48;99763.13;5062623;28;1963;-77
2023/04/12 03:18:25;;;;;;;;;;;;;;;6.09;68.53;99769.94;5057514;28;4698;-80
2023/04/12 03:20:52;;;;;;;;;;;;;;;6.11;68.54;99759.00;5053898;28;2876;-77
2023/04/12 03:23:19;;;;;;;;;;;;;;;6.09;68.58;99761.91;5061684;28;3170;-79
2023/04/12 03:25:46;;;;;;;;;;;;;;;6.09;68.50;99769.94;5060598;28;2089;-76
2023/04/12 03:28:12;;;;;;;;;;;;;;;6.09;68.54;99769.09;5065247;28;1672;-77
2023/04/12 03:30:39;;;;;;;;;;;;;;;6.08;68.53;99768.25;5067413;28;2204;-76
2023/04/12 03:33:06;;;;;;;;;;;;;;;6.07;68.75;99771.16;5048596;28;1757;-79
2023/04/12 03:35:32;;;;;;;;;;;;;;;6.08;68.77;99770.94;5066238;28;3497;-78
2023/04/12 03:37:59;;;;;;;;;;;;;;;6.09;68.50;99783.28;5045696;28;1606;-77
2023/04/12 03:40:25;;;;;;;;;;;;;;;6.17;68.42;99773.38;5044913;28;1522;-76
2023/04/12 03:42:52;;;;;;;;;;;;;;;6.11;68.44;99778.53;5044786;28;1752;-75
2023/04/12 03:45:19;;;;;;;;;;;;;;;6.09;68.53;99779.81;5060432;28;2222;-75
2023/04/12 03:47:45;;;;;;;;;;;;;;;6.09;68.69;99780.63;5063494;28;1824;-80
2023/04/12 03:50:12;;;;;;;;;;;;;;;6.14;68.43;99775.44;5048899;28;2011;-77
2023/04/12 03:52:38;;;;;;;;;;;;;;;6.11;68.33;99783.06;5063350;28;2003;-79
2023/04/12 03:55:06;;;;;;;;;;;;;;;6.08;68.87;99776.28;5054059;28;1699;-80
2023/04/12 03:57:32;;;;;;;;;;;;;;;6.10;68.52;99781.44;5070125;28;1636;-80
2023/04/12 03:59:59;;;;;;;;;;;;;;;6.08;68.72;99781.63;5060812;28;2066;-80
2023/04/12 04:02:25;;;;;;;;;;;;;;;6.08;68.45;99772.78;5055784;28;2078;-78
2023/04/12 04:04:52;;;;;;;;;;;;;;;6.11;68.17;99775.03;5053602;28;1638;-80
2023/04/12 04:07:18;;;;;;;;;;;;;;;6.08;68.64;99784.31;5064124;28;3582;-75
2023/04/12 04:09:45;;;;;;;;;;;;;;;6.08;68.18;99783.50;5037278;28;2609;-80
2023/04/12 04:12:12;;;;;;;;;;;;;;;6.16;68.46;99777.91;5042387;28;2574;-80
2023/04/12 04:14:38;;;;;;;;;;;;;;;6.09;68.39;99775.28;5066234;28;1915;-79
2023/04/12 04:17:05;;;;;;;;;;;;;;;6.08;68.58;99781.63;5053967;28;2171;-79
2023/04/12 04:19:31;;;;;;;;;;;;;;;6.07;68.37;99788.03;5036429;28;5028;-79
2023/04/12 04:22:00;;;;;;;;;;;;;;;6.11;68.47;99789.22;5059893;28;4103;-78
2023/04/12 04:24:27;;;;;;;;;;;;;;;6.08;68.64;99794.19;5061243;28;1694;-77
2023/04/12 04:26:54;;;;;;;;;;;;;;;6.06;68.34;99790.88;5042122;28;2919;-78
2023/04/12 04:29:20;;;;;;;;;;;;;;;6.07;68.37;99792.53;5071517;28;1955;-76
2023/04/12 04:31:47;;;;;;;;;;;;;;;6.20;68.25;99799.72;5071303;28;2065;-76
2023/04/12 04:34:13;;;;;;;;;;;;;;;6.23;67.83;99794.75;5077604;28;2681;-77
2023/04/12 04:36:40;;;;;;;;;;;;;;;6.11;68.27;99802.59;5072484;28;1820;-79
2023/04/12 04:39:06;;;;;;;;;;;;;;;6.06;68.07;99802.44;5067924;28;3343;-76
2023/04/12 04:41:38;;;;;;;;;;;;;;;6.04;68.47;99792.97;5062417;28;1521;-76
2023/04/12 04:44:08;;;;;;;;;;;;;;;6.04;68.58;99800.97;5069849;28;2066;-77
2023/04/12 04:46:36;;;;;;;;;;;;;;;6.07;68.59;99803.25;5080571;28;1600;-77
2023/04/12 04:49:02;;;;;;;;;;;;;;;6.09;68.41;99801.19;5064198;28;1168;-77
2023/04/12 04:51:29;;;;;;;;;;;;;;;6.05;68.54;99808.78;5066545;28;1984;-76
2023/04/12 04:53:56;;;;;;;;;;;;;;;6.05;68.31;99805.28;5068743;28;1993;-76
2023/04/12 04:56:23;;;;;;;;;;;;;;;6.11;68.34;99807.94;5063531;28;2162;-75
2023/04/12 04:58:50;;;;;;;;;;;;;;;6.06;68.29;99806.94;5066603;28;2141;-76
2023/04/12 05:01:16;;;;;;;;;;;;;;;6.07;68.27;99814.75;5085019;28;2089;-75
2023/04/12 05:03:43;;;;;;;;;;;;;;;6.03;68.39;99808.19;5083850;28;2155;-75
2023/04/12 05:06:10;;;;;;;;;;;;;;;6.04;68.66;99809.00;5083348;28;1927;-76
2023/04/12 05:08:36;;;;;;;;;;;;;;;6.03;68.70;99813.53;5083556;28;1275;-77
2023/04/12 05:11:03;;;;;;;;;;;;;;;6.20;68.01;99815.75;5082490;28;2132;-76
2023/04/12 05:13:29;;;;;;;;;;;;;;;6.08;68.22;99811.03;5082722;28;2199;-78
2023/04/12 05:15:56;;;;;;;;;;;;;;;6.07;68.38;99812.09;5066338;28;2139;-79
2023/04/12 05:18:22;;;;;;;;;;;;;;;6.17;68.06;99811.63;5083068;28;2136;-80
2023/04/12 05:20:49;;;;;;;;;;;;;;;6.09;68.15;99809.22;5083156;28;5226;-75
2023/04/12 05:23:16;;;;;;;;;;;;;;;6.08;68.48;99821.72;5082068;28;4576;-80
2023/04/12 05:25:42;;;;;;;;;;;;;;;6.12;68.12;99817.63;5065037;28;2103;-80
2023/04/12 05:28:12;;;;;;;;;;;;;;;6.06;68.36;99823.81;5062917;28;4222;-77
2023/04/12 05:30:39;;;;;;;;;;;;;;;6.02;68.60;99829.78;5066206;28;2147;-78
2023/04/12 05:33:06;;;;;;;;;;;;;;;6.00;68.60;99813.97;5083396;28;1984;-78
2023/04/12 05:35:32;;;;;;;;;;;;;;;5.99;68.41;99820.31;5081136;28;2034;-79
2023/04/12 05:37:59;;;;;;;;;;;;;;;6.01;68.47;99820.94;5064397;28;1987;-79
2023/04/12 05:40:26;;;;;;;;;;;;;;;6.06;68.11;99822.97;5064377;28;3739;-78
2023/04/12 05:42:52;;;;;;;;;;;;;;;6.19;67.84;99828.31;5082376;28;2362;-79
2023/04/12 05:45:19;;;;;;;;;;;;;;;6.12;68.33;99825.66;5083339;28;2031;-77
2023/04/12 05:47:45;;;;;;;;;;;;;;;6.06;68.34;99825.63;5067587;28;1837;-77
2023/04/12 05:50:12;;;;;;;;;;;;;;;6.04;68.12;99828.53;5064922;28;1313;-79
2023/04/12 05:52:38;;;;;;;;;;;;;;;6.02;68.40;99830.59;5083839;28;1914;-78
2023/04/12 05:55:05;;;;;;;;;;;;;;;6.01;68.37;99836.16;5075891;28;1602;-79
2023/04/12 05:57:32;;;;;;;;;;;;;;;6.01;68.38;99830.81;5071782;28;1842;-79
2023/04/12 05:59:58;;;;;;;;;;;;;;;6.01;68.14;99820.94;5056874;28;1631;-77
2023/04/12 06:02:26;;;;;;;;;;;;;;;5.98;68.27;99826.69;5080234;28;1696;-80
2023/04/12 06:04:54;;;;;;;;;;;;;;;6.00;68.54;99835.34;5084599;28;1073;-79
2023/04/12 06:07:20;;;;;;;;;;;;;;;5.98;68.37;99828.56;5064704;28;1913;-78
2023/04/12 06:09:48;;;;;;;;;;;;;;;5.99;68.49;99830.19;5083754;28;1695;-78
2023/04/12 06:12:15;;;;;;;;;;;;;;;6.00;68.45;99827.31;5082902;28;1918;-77
2023/04/12 06:14:41;;;;;;;;;;;;;;;6.08;67.98;99824.41;5066305;28;3541;-79
2023/04/12 06:17:08;;;;;;;;;;;;;;;6.12;67.95;99827.50;5071103;28;3751;-77
2023/04/12 06:19:34;;;;;;;;;;;;;;;6.04;68.09;99828.53;5085384;28;1391;-77
2023/04/12 06:22:01;;;;;;;;;;;;;;;6.00;68.28;99834.50;5060693;28;4830;-78
2023/04/12 06:24:27;;;;;;;;;;;;;;;6.08;68.27;99824.41;5081840;28;4295;-79
2023/04/12 06:26:54;;;;;;;;;;;;;;;6.02;68.13;99829.78;5082883;28;1428;-78
2023/04/12 06:29:21;;;;;;;;;;;;;;;5.99;68.45;99828.31;5083330;28;4355;-78
2023/04/12 06:31:47;;;;;;;;;;;;;;;5.99;68.32;99831.00;5076984;28;1910;-78
2023/04/12 06:34:14;;;;;;;;;;;;;;;5.98;68.27;99826.69;5068473;28;1799;-78
2023/04/12 06:36:42;;;;;;;;;;;;;;;5.98;68.32;99834.72;5071894;28;1788;-77
2023/04/12 06:39:10;;;;;;;;;;;;;;;5.54;68.38;99757.84;5070352;28;2000;-79
2023/04/12 06:41:37;;;;;;;;;;;;;;;5.97;68.49;99832.22;5069268;28;3065;-79
2023/04/12 06:44:04;;;;;;;;;;;;;;;6.03;68.35;99831.41;5048860;28;1936;-79
2023/04/12 06:46:30;;;;;;;;;;;;;;;5.99;68.44;99831.00;5061220;28;1870;-78
2023/04/12 06:48:57;;;;;;;;;;;;;;;6.04;68.33;99819.69;5070254;28;1890;-80
2023/04/12 06:51:23;;;;;;;;;;;;;;;6.03;68.42;99826.06;5053657;28;1910;-79
2023/04/12 06:53:50;;;;;;;;;;;;;;;6.03;68.18;99831.41;5056837;28;1661;-78
2023/04/12 06:56:16;;;;;;;;;;;;;;;5.99;68.26;99825.66;5070620;28;1708;-77
2023/04/12 06:58:43;;;;;;;;;;;;;;;5.97;68.43;99833.09;5071351;28;1796;-77
2023/04/12 07:01:10;;;;;;;;;;;;;;;6.07;68.34;99843.34;5069282;28;1929;-80
2023/04/12 07:03:36;;;;;;;;;;;;;;;6.01;68.05;99831.63;5075754;28;1833;-77
2023/04/12 07:06:03;;;;;;;;;;;;;;;5.99;68.26;99836.34;5077199;28;1633;-79
2023/04/12 07:08:30;;;;;;;;;;;;;;;5.97;68.94;99830.41;5076190;28;1951;-79
2023/04/12 07:10:56;;;;;;;;;;;;;;;6.01;68.39;99825.47;5055438;28;1770;-79
2023/04/12 07:13:23;;;;;;;;;;;;;;;5.97;68.27;99835.75;5073156;28;2045;-78
2023/04/12 07:15:50;;;;;;;;;;;;;;;5.96;68.29;99825.25;5067727;28;3466;-78
2023/04/12 07:18:17;;;;;;;;;;;;;;;5.95;68.55;99835.13;5061957;28;3589;-79
2023/04/12 07:20:43;;;;;;;;;;;;;;;6.09;68.27;99830.59;5049674;28;1991;-78
2023/04/12 07:23:10;;;;;;;;;;;;;;;6.19;67.81;99839.00;5068195;28;3435;-78
2023/04/12 07:25:37;;;;;;;;;;;;;;;6.05;68.10;99832.03;5066466;28;5103;-77
2023/04/12 07:28:03;;;;;;;;;;;;;;;6.08;67.84;99840.44;5069748;28;3948;-77
2023/04/12 07:30:30;;;;;;;;;;;;;;;6.00;68.18;99835.34;5071733;28;2334;-78
2023/04/12 07:32:59;;;;;;;;;;;;;;;6.01;68.01;99833.47;5064274;28;2482;-78
2023/04/12 07:35:26;;;;;;;;;;;;;;;5.97;68.25;99832.22;5071899;28;2122;-77
2023/04/12 07:37:52;;;;;;;;;;;;;;;5.97;68.30;99827.72;5068907;28;2278;-78
2023/04/12 07:40:19;;;;;;;;;;;;;;;5.99;68.19;99831.00;5069134;28;1677;-80
2023/04/12 07:42:45;;;;;;;;;;;;;;;6.02;68.43;99835.13;5068937;28;1900;-78
2023/04/12 07:45:12;;;;;;;;;;;;;;;6.01;68.32;99826.28;5066445;28;3785;-78
2023/04/12 07:47:38;;;;;;;;;;;;;;;5.98;68.20;99837.38;5076781;28;3592;-79
2023/04/12 07:50:05;;;;;;;;;;;;;;;6.03;68.36;99836.75;5080377;28;963;-78
2023/04/12 07:52:32;;;;;;;;;;;;;;;6.00;68.39;99834.50;5062450;28;1976;-78
2023/04/12 07:54:58;;;;;;;;;;;;;;;5.98;68.31;99829.38;5081332;28;1084;-78
2023/04/12 07:57:25;;;;;;;;;;;;;;;6.00;68.53;99839.84;5060548;28;1605;-78
2023/04/12 07:59:52;;;;;;;;;;;;;;;5.97;68.42;99834.91;5081449;28;952;-78
2023/04/12 08:02:23;;;;;;;;;;;;;;;5.98;68.74;99833.91;5069821;28;1705;-78
2023/04/12 08:04:50;;;;;;;;;;;;;;;6.03;68.55;99839.41;5066279;28;1658;-77
2023/04/12 08:07:16;;;;;;;;;;;;;;;6.02;68.44;99837.78;5069098;28;1576;-79
2023/04/12 08:09:43;;;;;;;;;;;;;;;6.03;68.56;99831.41;5068798;28;1638;-77
2023/04/12 08:12:10;;;;;;;;;;;;;;;6.01;68.51;99828.13;5061237;28;2504;-78
2023/04/12 08:14:36;;;;;;;;;;;;;;;6.01;68.84;99839.66;5069038;28;1664;-79
2023/04/12 08:17:03;;;;;;;;;;;;;;;6.07;68.45;99843.34;5063414;28;4587;-77
2023/04/12 08:19:30;;;;;;;;;;;;;;;6.17;68.29;99853.59;5060954;28;4493;-77
2023/04/12 08:21:56;;;;;;;;;;;;;;;6.11;67.90;99844.56;5064538;28;1715;-79
2023/04/12 08:24:23;;;;;;;;;;;;;;;6.23;68.06;99845.56;5075061;28;4048;-76
2023/04/12 08:26:50;;;;;;;;;;;;;;;6.13;68.11;99842.50;5060586;28;2188;-79
2023/04/12 08:29:17;;;;;;;;;;;;;;;6.12;68.26;99841.69;5062570;28;2206;-79
2023/04/12 08:31:43;;;;;;;;;;;;;;;6.19;68.08;99843.53;5066765;28;1984;-78
2023/04/12 08:34:10;;;;;;;;;;;;;;;6.11;67.97;99832.00;5084349;28;1580;-77
2023/04/12 08:36:36;;;;;;;;;;;;;;;6.12;68.42;99832.84;5085249;28;3788;-78
2023/04/12 08:39:03;;;;;;;;;;;;;;;6.08;68.23;99832.44;5084476;28;1565;-78
2023/04/12 08:41:29;;;;;;;;;;;;;;;6.10;68.40;99838.41;5056973;28;1522;-78
2023/04/12 08:43:56;;;;;;;;;;;;;;;6.06;68.74;99833.66;5068164;28;1930;-80
2023/04/12 08:46:22;;;;;;;;;;;;;;;6.04;68.34;99833.88;5050872;28;1629;-78
2023/04/12 08:48:49;;;;;;;;;;;;;;;6.03;68.31;99834.91;5055335;28;1570;-79
2023/04/12 08:51:15;;;;;;;;;;;;;;;6.05;68.62;99842.72;5057276;28;1800;-79
2023/04/12 08:53:42;;;;;;;;;;;;;;;6.05;68.64;99843.53;5063731;28;1985;-77
2023/04/12 08:56:09;;;;;;;;;;;;;;;6.03;68.65;99842.94;5073723;28;1696;-78
2023/04/12 08:58:35;;;;;;;;;;;;;;;6.02;68.68;99837.78;5076163;28;1678;-78
2023/04/12 09:01:02;;;;;;;;;;;;;;;6.04;68.64;99835.75;5065236;28;1725;-78
2023/04/12 09:03:30;;;;;;;;;;;;;;;6.03;68.69;99836.75;5084295;28;1315;-78
2023/04/12 09:05:56;;;;;;;;;;;;;;;6.04;68.63;99835.75;5084017;28;1125;-78
2023/04/12 09:08:23;;;;;;;;;;;;;;;6.04;68.39;99841.09;5083409;28;1241;-78
2023/04/12 09:10:50;;;;;;;;;;;;;;;6.04;68.96;99836.56;5083651;28;1407;-77
2023/04/12 09:13:17;;;;;;;;;;;;;;;6.05;68.68;99834.69;5079604;28;4283;-78
2023/04/12 09:15:43;;;;;;;;;;;;;;;6.04;68.61;99835.75;5083402;28;3757;-78
2023/04/12 09:18:10;;;;;;;;;;;;;;;6.05;68.74;99834.69;5083479;28;3932;-78
2023/04/12 09:20:36;;;;;;;;;;;;;;;6.06;68.75;99839.00;5084329;28;1007;-78
2023/04/12 09:23:03;;;;;;;;;;;;;;;6.04;68.85;99833.88;5083659;28;1815;-78
2023/04/12 09:25:29;;;;;;;;;;;;;;;6.03;68.58;99832.25;5065515;28;1624;-79
2023/04/12 09:27:57;;;;;;;;;;;;;;;6.05;68.50;99834.69;5083862;28;1667;-79
2023/04/12 09:30:24;;;;;;;;;;;;;;;6.06;68.43;99830.97;5083538;28;3587;-78
2023/04/12 09:32:52;;;;;;;;;;;;;;;6.07;68.58;99827.31;5083306;28;1910;-78
2023/04/12 09:35:18;;;;;;;;;;;;;;;6.08;68.27;99827.06;5066270;28;1689;-79
2023/04/12 09:37:45;;;;;;;;;;;;;;;6.08;68.41;99821.72;5073761;28;1182;-79
2023/04/12 09:40:11;;;;;;;;;;;;;;;6.09;68.14;99825.25;5083965;28;1027;-79
2023/04/12 09:42:38;;;;;;;;;;;;;;;6.08;68.29;99823.59;5082756;28;1326;-78
2023/04/12 09:45:05;;;;;;;;;;;;;;;6.08;68.15;99815.56;5065255;28;1537;-78
2023/04/12 09:47:31;;;;;;;;;;;;;;;6.09;67.90;99822.56;5083792;28;1516;-78
2023/04/12 09:49:58;;;;;;;;;;;;;;;6.11;68.15;99812.47;5064339;28;1553;-78
2023/04/12 09:52:25;;;;;;;;;;;;;;;6.10;68.15;99811.66;5081854;28;1967;-79
2023/04/12 09:54:53;;;;;;;;;;;;;;;6.09;68.05;99812.69;5065861;28;1184;-79
2023/04/12 09:57:20;;;;;;;;;;;;;;;6.10;68.10;99819.69;5081631;28;1722;-80
2023/04/12 09:59:47;;;;;;;;;;;;;;;6.10;68.04;99819.69;5083345;28;1147;-77
2023/04/12 10:02:13;;;;;;;;;;;;;;;6.10;68.14;99811.66;5083468;28;1597;-79
2023/04/12 10:04:40;;;;;;;;;;;;;;;6.12;67.96;99817.63;5083669;28;1631;-79
2023/04/12 10:07:07;;;;;;;;;;;;;;;6.12;67.79;99816.81;5081524;28;1485;-78
2023/04/12 10:09:33;;;;;;;;;;;;;;;6.13;67.86;99815.78;5081193;28;1543;-79
2023/04/12 10:12:00;;;;;;;;;;;;;;;6.12;67.70;99817.63;5063724;28;1452;-79
2023/04/12 10:14:27;;;;;;;;;;;;;;;6.13;67.92;99815.78;5067288;28;1979;-77
2023/04/12 10:16:55;;;;;;;;;;;;;;;6.12;67.82;99814.97;5062506;28;4399;-79
2023/04/12 10:19:21;;;;;;;;;;;;;;;6.12;67.87;99814.97;5083208;28;4379;-78
2023/04/12 10:21:48;;;;;;;;;;;;;;;6.14;67.88;99815.53;5082182;28;4450;-77
2023/04/12 10:24:16;;;;;;;;;;;;;;;6.14;68.01;99814.72;5083320;28;1400;-77
2023/04/12 10:26:43;;;;;;;;;;;;;;;6.14;67.99;99818.22;5065936;28;1164;-80
2023/04/12 10:29:10;;;;;;;;;;;;;;;6.14;67.90;99830.78;5082128;28;1112;-80
2023/04/12 10:31:37;;;;;;;;;;;;;;;6.16;68.05;99822.56;5082345;28;1442;-79
2023/04/12 10:34:03;;;;;;;;;;;;;;;6.15;67.91;99821.75;5083706;28;4440;-77
2023/04/12 10:39:20;;;;;;;;;;;;;;;6.14;68.06;99818.22;5065585;28;987;-78
2023/04/12 10:41:50;;;;;;;;;;;;;;;6.15;68.11;99811.03;5082865;28;1419;-78
2023/04/12 10:44:16;;;;;;;;;;;;;;;6.17;67.88;99810.81;5081419;28;1398;-79
2023/04/12 10:46:43;;;;;;;;;;;;;;;6.16;68.08;99807.34;5063190;28;1563;-78
2023/04/12 10:49:09;;;;;;;;;;;;;;;6.16;68.12;99809.19;5079837;28;1034;-77
2023/04/12 10:51:36;;;;;;;;;;;;;;;6.16;68.20;99807.34;5081545;28;1494;-80
2023/04/12 10:54:03;;;;;;;;;;;;;;;6.16;67.98;99804.66;5080281;28;1919;-77
2023/04/12 10:56:29;;;;;;;;;;;;;;;6.17;67.97;99802.81;5065162;28;1308;-79
2023/04/12 10:58:56;;;;;;;;;;;;;;;6.17;68.28;99800.94;5062897;28;1143;-79
2023/04/12 11:01:23;;;;;;;;;;;;;;;6.17;68.00;99790.25;5081816;28;1506;-78
2023/04/12 11:03:49;;;;;;;;;;;;;;;6.17;68.09;99798.28;5082629;28;1045;-78
2023/04/12 11:06:16;;;;;;;;;;;;;;;6.17;67.98;99792.91;5062706;28;1281;-77
2023/04/12 11:08:42;;;;;;;;;;;;;;;6.18;68.21;99799.09;5065614;28;1274;-77
2023/04/12 11:11:09;;;;;;;;;;;;;;;6.17;68.19;99802.81;5063670;28;1436;-77
2023/04/12 11:13:35;;;;;;;;;;;;;;;6.17;68.16;99800.94;5063829;28;1910;-77
2023/04/12 11:16:02;;;;;;;;;;;;;;;6.19;67.89;99795.41;5081773;28;1549;-80
2023/04/12 11:18:29;;;;;;;;;;;;;;;6.19;67.95;99798.91;5077354;28;4564;-79
2023/04/12 11:20:55;;;;;;;;;;;;;;;6.20;68.17;99797.03;5081417;28;4587;-80
2023/04/12 11:23:22;;;;;;;;;;;;;;;6.20;68.10;99792.50;5064517;28;1162;-79
2023/04/12 11:25:49;;;;;;;;;;;;;;;6.19;68.31;99792.72;5062013;28;4572;-78
2023/04/12 11:28:15;;;;;;;;;;;;;;;6.21;68.13;99790.69;5062584;28;1455;-78
2023/04/12 11:30:42;;;;;;;;;;;;;;;6.20;68.12;99786.34;5080733;28;1510;-78
2023/04/12 11:33:08;;;;;;;;;;;;;;;6.21;68.01;99794.16;5080324;28;1921;-78
2023/04/12 11:35:35;;;;;;;;;;;;;;;6.21;68.21;99794.16;5064403;28;1251;-78
2023/04/12 11:38:01;;;;;;;;;;;;;;;6.22;68.01;99798.47;5062989;28;4767;-76
2023/04/12 11:40:28;;;;;;;;;;;;;;;6.23;68.09;99788.59;5081073;28;1405;-79
2023/04/12 11:42:56;;;;;;;;;;;;;;;6.23;68.38;99793.94;5081816;28;1303;-77
2023/04/12 11:45:22;;;;;;;;;;;;;;;6.23;68.07;99792.09;5064333;28;1307;-79
2023/04/12 11:47:50;;;;;;;;;;;;;;;6.24;68.04;99791.06;5080128;28;1370;-78
2023/04/12 11:50:17;;;;;;;;;;;;;;;6.33;68.56;99787.13;5079623;28;2014;-80
2023/04/12 11:52:43;;;;;;;;;;;;;;;6.37;68.45;99788.34;5063163;28;1910;-77
2023/04/12 11:55:10;;;;;;;;;;;;;;;6.30;68.47;99787.56;5065779;28;1909;-78
2023/04/12 11:57:37;;;;;;;;;;;;;;;6.28;68.56;99784.25;5074531;28;3724;-78
2023/04/12 12:00:05;;;;;;;;;;;;;;;6.28;68.40;99783.44;5062933;28;2088;-77
2023/04/12 12:02:32;;;;;;;;;;;;;;;6.29;68.36;99779.72;5077653;28;2553;-77
2023/04/12 12:04:58;;;;;;;;;;;;;;;6.29;68.83;99783.22;5084168;28;1158;-77
2023/04/12 12:07:25;;;;;;;;;;;;;;;6.28;68.42;99776.25;5059376;28;2333;-78
2023/04/12 12:09:51;;;;;;;;;;;;;;;6.29;68.45;99777.88;5085442;28;1879;-77
2023/04/12 12:12:18;;;;;;;;;;;;;;;6.29;68.44;99780.53;5083158;28;1894;-76
2023/04/12 12:14:46;;;;;;;;;;;;;;;6.30;68.72;99773.38;5083154;28;1902;-77
2023/04/12 12:17:12;;;;;;;;;;;;;;;6.30;68.55;99768.03;5064263;28;1564;-77
2023/04/12 12:19:39;;;;;;;;;;;;;;;6.30;68.72;99771.50;5065885;28;1511;-77
2023/04/12 12:22:05;;;;;;;;;;;;;;;6.31;68.50;99769.66;5066532;28;1764;-74
2023/04/12 12:24:32;;;;;;;;;;;;;;;6.32;68.67;99766.78;5064508;28;2046;-77
2023/04/12 12:26:58;;;;;;;;;;;;;;;6.31;68.64;99759.78;5066752;28;2054;-76
2023/04/12 12:29:25;;;;;;;;;;;;;;;6.33;68.54;99764.91;5081210;28;4210;-76
2023/04/12 12:31:52;;;;;;;;;;;;;;;6.33;68.75;99762.25;5085110;28;4448;-76
2023/04/12 12:34:19;;;;;;;;;;;;;;;6.32;68.62;99750.72;5066491;28;3540;-79
2023/04/12 12:36:45;;;;;;;;;;;;;;;6.32;68.59;99755.22;5083995;28;2549;-77
2023/04/12 12:39:14;;;;;;;;;;;;;;;6.33;68.90;99744.34;5083128;28;2086;-76
2023/04/12 12:41:41;;;;;;;;;;;;;;;6.34;68.90;99751.31;5065592;28;2213;-79
2023/04/12 12:44:07;;;;;;;;;;;;;;;6.34;68.66;99754.00;5084333;28;2413;-78
2023/04/12 12:46:34;;;;;;;;;;;;;;;6.35;68.83;99754.81;5082741;28;3404;-79
2023/04/12 12:49:01;;;;;;;;;;;;;;;6.36;68.95;99751.13;5068258;28;2028;-77
2023/04/12 12:51:27;;;;;;;;;;;;;;;6.35;68.78;99742.28;5083976;28;2025;-76
2023/04/12 12:53:54;;;;;;;;;;;;;;;6.35;68.83;99752.97;5082907;28;2339;-77
2023/04/12 12:56:20;;;;;;;;;;;;;;;6.37;68.52;99748.22;5070899;28;1995;-79
2023/04/12 12:58:47;;;;;;;;;;;;;;;6.37;68.90;99732.19;5051612;28;2012;-78
2023/04/12 13:01:13;;;;;;;;;;;;;;;6.39;68.83;99736.50;5074673;28;1788;-78
2023/04/12 13:03:40;;;;;;;;;;;;;;;6.39;68.81;99728.50;5053729;28;1649;-79
2023/04/12 13:06:06;;;;;;;;;;;;;;;6.39;68.54;99725.81;5071691;28;2007;-79